Weather observations for the past three days for
Bend Airport AWOS
Metric (Imperial)
Date Time (pdt) Wind (kph) Vis. (km) Weather Sky Cond. Temperature (ºC) Relative Humidity Wind Chill (°C) Heat Index (°C) Pressure Precipitation (cm)
Air Dwpt 6 hour altimeter (cm) sea level (mb) 1 hr 3 hr 6 hr
Max. Min.
31 03:55 SW 9 16.09 Fair CLR 9 -2 46% 8 76.17 0.0
31 03:30 SW 13 16.09 Fair CLR 9 -2 46% 7 76.2 0.0
31 03:15 SW 11 16.09 Fair CLR 9 -2 46% 8 76.2 0.0
31 02:55 SW 11 16.09 Fair CLR 9 -2 46% 8 76.2 0.0
31 02:30 SW 9 16.09 Fair CLR 10 -2 43% 9 76.2 0.0
31 02:15 SW 6 16.09 Fair CLR 10 -2 43% 76.2 0.0
31 01:55 SW 9 16.09 Fair CLR 10 -2 43% 9 76.23 0.0
31 01:30 SW 11 16.09 Fair CLR 10 -2 43% 9 76.23 0.0
31 01:15 SW 9 16.09 Fair CLR 10 -2 43% 9 76.23 0.0
31 00:50 SW 7 16.09 Fair CLR 11 -2 41% 76.23 0.0
31 00:30 SW 6 16.09 A Few Clouds FEW003 11 -2 41% 76.25 0.0
31 00:15 SW 7 16.09 Mostly Cloudy BKN003 11 -2 41% 76.25 0.0
30 23:55 Calm 16.09 Mostly Cloudy BKN003 13 -2 36% 76.25 0.0
30 23:30 W 6 16.09 A Few Clouds FEW003 15 -1 34% 76.25 0.0
30 23:10 W 11 16.09 A Few Clouds FEW026 14 -2 33% 76.25 0.0
30 22:55 W 7 16.09 Mostly Cloudy BKN026 13 -2 36% 76.28 0.0
30 22:35 Calm 16.09 Mostly Cloudy BKN024 15 -2 31% 76.28 0.0
30 22:10 Calm 16.09 Partly Cloudy SCT022 14 -2 33% 76.28 0.0
30 21:55 Calm 16.09 A Few Clouds FEW020 15 -2 31% 76.28 0.0
30 21:35 Calm 16.09 Fair CLR 16 -3 27% 76.28 0.0
30 21:10 NW 6 16.09 Fair CLR 17 -3 25% 76.25 0.0
30 20:55 Calm 16.09 Fair CLR 18 -5 21% 76.25 0.0
30 20:35 N 6 16.09 Fair CLR 19 -5 19% 76.23 0.0
30 20:10 N 9 16.09 Fair CLR 20 -7 16% 76.23 0.0
30 19:55 Calm 16.09 Fair CLR 21 -8 13% 76.2 0.0
30 19:35 N 7 16.09 Fair CLR 23 -8 12% 76.2 0.0
30 19:10 N 11 16.09 Fair CLR 24 -7 12% 24 76.2 0.0
30 18:55 N 9 16.09 Fair CLR 24 -5 14% 24 76.2 0.0
30 18:35 NE 13 16.09 Fair CLR 25 -4 14% 25 76.2 0.0
30 18:10 N 11 16.09 Fair CLR 25 -5 13% 25 76.2 0.0
30 17:55 Vrbl 9 16.09 Fair CLR 26 -5 12% 25 76.2 0.0
30 17:35 N 13 16.09 Fair CLR 26 -5 12% 25 76.23 0.0
30 17:15 N 6 16.09 Fair CLR 26 -6 12% 25 76.23 0.0
30 16:50 N 11 G 20 16.09 Fair CLR 26 -6 12% 25 76.25 0.0
30 16:30 N 15 16.09 Fair CLR 26 -6 12% 25 76.25 0.0
30 16:10 Vrbl 9 16.09 Fair CLR 25 -6 12% 25 76.25 0.0
30 15:50 Vrbl 7 16.09 Fair CLR 26 -7 11% 25 76.28 0.0
30 15:35 NW 7 14.48 Fair CLR 26 -8 10% 25 76.3 0.0
30 15:15 Calm 16.09 Fair CLR 25 -8 11% 24 76.3 0.0
30 14:50 Calm 16.09 Fair CLR 25 -8 11% 24 76.33 0.0
30 14:10 Vrbl 6 16.09 Fair CLR 24 -6 13% 24 76.38 0.0
30 13:55 N 11 16.09 Fair CLR 23 -6 14% 76.38 0.0
30 13:30 Calm 16.09 Fair CLR 22 -4 17% 76.4 0.0
30 13:10 Vrbl 9 16.09 Fair CLR 22 -3 19% 76.4 0.0
30 12:50 Calm 16.09 Fair CLR 21 -3 20% 76.4 0.0
30 12:35 Calm 16.09 Fair CLR 21 -1 23% 0 0.0
30 12:15 NW 6 16.09 Fair CLR 19 0 28% 76.43 0.0
30 11:50 Calm 16.09 Fair CLR 18 1 32% 76.45 0.0
30 11:35 Vrbl 7 16.09 Fair CLR 18 0 30% 76.48 0.0
30 11:10 Vrbl 7 16.09 Fair CLR 17 1 34% 76.48 0.0
30 10:50 Vrbl 6 16.09 Fair CLR 17 1 34% 76.5 0.0
30 10:35 Vrbl 7 16.09 Fair CLR 16 2 39% 76.5 0.0
30 10:10 SE 7 16.09 Fair CLR 16 2 39% 76.5 0.0
30 09:50 E 6 16.09 Fair CLR 14 2 44% 76.53 0.0
30 09:35 Calm 16.09 Fair CLR 14 2 44% 76.53 0.0
30 09:10 Calm 16.09 Fair CLR 13 2 47% 76.53 0.0
30 08:50 E 7 16.09 Fair CLR 12 2 51% 76.53 0.0
30 08:35 SW 15 16.09 Fair CLR 12 3 54% 76.56 0.0
30 08:10 Calm 16.09 Fair CLR 10 2 58% 76.56 0.0
30 07:50 S 9 16.09 Fair CLR 9 3 66% 8 76.56 0.0
30 07:35 S 13 16.09 Fair CLR 8 2 66% 6 76.53 0.0
30 07:10 S 11 16.09 A Few Clouds FEW020 6 2 76% 4 76.53 0.0
30 06:50 S 13 16.09 Mostly Cloudy BKN021 5 1 76% 2 76.5 0.0
30 06:30 SW 13 16.09 Partly Cloudy SCT021 5 1 76% 2 76.5 0.0
30 06:10 SW 17 16.09 A Few Clouds FEW022 5 1 76% 2 76.5 0.0
30 05:50 SW 13 16.09 Fair CLR 5 1 76% 2 76.5 0.0
30 05:35 SW 15 16.09 Fair CLR 5 1 76% 2 76.5 0.0
30 05:10 SW 17 16.09 Fair CLR 5 1 76% 2 76.5 0.0
30 04:50 SW 15 16.09 Fair CLR 5 1 76% 2 76.5 0.0
30 04:30 S 9 16.09 Fair CLR 5 1 76% 3 76.5 0.0
30 04:10 SW 11 16.09 Fair CLR 5 1 76% 3 76.5 0.0
30 03:50 SW 11 16.09 Fair CLR 5 1 76% 3 76.5 0.0
30 03:30 SW 6 16.09 Fair CLR 5 1 76% 76.5 0.0
30 03:10 SW 7 16.09 Fair CLR 4 0 75% 2 76.5 0.0
30 02:50 Calm 16.09 Fair CLR 5 1 76% 76.5 0.0
30 02:35 SW 7 16.09 Fair CLR 5 1 76% 4 76.5 0.0
30 02:10 SW 6 16.09 Fair CLR 6 1 71% 76.5 0.0
30 01:50 Calm 16.09 Fair CLR 6 1 71% 76.5 0.0
30 01:35 Calm 16.09 Fair CLR 7 1 66% 76.5 0.0
30 01:10 Calm 16.09 Fair CLR 8 2 66% 76.48 0.0
30 00:50 Calm 16.09 Fair CLR 8 2 66% 76.48 0.0
30 00:30 Calm 16.09 Fair CLR 8 2 66% 76.48 0.0
30 00:10 Calm 16.09 Fair CLR 9 2 62% 76.48 0.0
29 23:55 N 7 0.00 Fair CLR 9 2 62% 8 76.48 0.0
29 23:35 N 7 16.09 Fair CLR 9 2 62% 8 76.48 0.0
29 23:15 Calm 16.09 Fair CLR 10 2 58% 76.48 0.0
29 22:55 Calm 16.09 Fair CLR 10 2 58% 76.48 0.0
29 22:35 Calm 16.09 Fair CLR 9 1 58% 76.5 0.0
29 22:10 Calm 16.09 A Few Clouds FEW048 11 1 50% 76.5 0.0
29 21:55 Calm 16.09 Mostly Cloudy BKN049 11 2 54% 76.5 0.0
29 21:35 Calm 16.09 Overcast OVC049 12 2 51% 76.48 0.0
29 21:15 Calm 16.09 Overcast OVC050 12 2 51% 76.48 0.0
29 20:55 N 6 16.09 Overcast OVC050 13 1 44% 76.45 0.0
29 20:30 NW 9 16.09 Overcast OVC055 14 2 44% 76.43 0.0
29 20:15 NW 9 16.09 Mostly Cloudy BKN055 14 2 44% 76.43 0.0
29 19:55 NW 11 16.09 Fair CLR 15 1 39% 76.4 0.0
29 19:35 NW 19 16.09 Fair CLR 16 1 36% 76.4 0.0
29 19:15 NW 19 16.09 Fair CLR 17 1 34% 76.4 0.0
29 18:55 N 19 G 30 16.09 Fair CLR 18 1 32% 76.38 0.0
29 18:35 NW 19 G 35 16.09 Fair CLR 18 1 32% 76.38 0.0
29 18:10 N 22 16.09 Fair CLR 19 1 30% 76.35 0.0
29 17:55 N 24 16.09 Fair CLR 20 0 26% 76.35 0.0
29 17:35 N 22 G 37 16.09 Fair CLR 20 0 26% 76.33 0.0
29 17:10 NW 26 G 35 16.09 Fair CLR 20 -1 24% 76.33 0.0
29 16:50 NW 22 16.09 Fair CLR 20 0 26% 76.33 0.0
29 16:35 NW 24 16.09 Fair CLR 20 0 26% 76.3 0.0
29 16:15 N 28 G 37 16.09 Fair CLR 20 0 26% 76.33 0.0
29 15:50 NW 26 G 35 16.09 Fair CLR 20 0 26% 76.33 0.0
29 15:35 N 26 16.09 Fair CLR 20 1 28% 76.35 0.0
29 15:15 N 24 G 39 16.09 Fair CLR 21 1 27% 76.35 0.0
29 14:50 N 19 16.09 Fair CLR 20 1 28% 76.35 0.0
29 14:35 NW 19 G 30 16.09 Fair CLR 20 2 30% 76.35 0.0
29 14:15 N 20 G 33 16.09 Fair CLR 19 2 32% 76.38 0.0
29 13:50 Vrbl 11 G 30 16.09 Fair CLR 19 3 35% 76.38 0.0
29 13:35 N 20 16.09 Fair CLR 19 3 35% 76.38 0.0
29 13:10 N 20 G 30 16.09 Fair CLR 18 3 37% 76.38 0.0
29 12:50 N 19 G 30 16.09 Fair CLR 18 3 37% 76.38 0.0
29 12:35 NW 22 16.09 Fair CLR 18 3 37% 76.38 0.0
29 11:55 NE 9 16.09 Fair CLR 18 2 34% 76.38 0.0
29 11:35 N 7 G 22 16.09 A Few Clouds FEW050 18 2 34% 76.4 0.0
29 11:15 Vrbl 9 G 24 16.09 Mostly Cloudy BKN049 18 2 34% 76.38 0.0
29 10:50 Vrbl 7 G 19 16.09 Mostly Cloudy BKN045 17 3 39% 76.38 0.0
29 10:35 Vrbl 7 16.09 Overcast OVC042 18 3 37% 76.38 0.0
29 10:15 NE 9 16.09 Mostly Cloudy BKN039 15 4 48% 76.38 0.0
29 09:50 N 9 16.09 Partly Cloudy SCT037 16 5 48% 76.38 0.0
29 09:35 Vrbl 11 16.09 A Few Clouds FEW036 15 5 51% 76.38 0.0
29 09:15 N 11 16.09 Partly Cloudy SCT037 SCT043 14 5 55% 76.38 0.0
29 08:50 Vrbl 6 16.09 Overcast OVC038 14 6 59% 76.38 0.0
29 08:35 N 9 16.09 Mostly Cloudy BKN036 13 6 63% 76.38 0.0
29 08:10 N 7 16.09 Fair CLR 13 6 63% 76.38 0.0
29 07:50 N 7 16.09 Fair CLR 12 6 67% 76.35 0.0
29 07:35 N 6 16.09 Fair CLR 11 6 72% 76.35 0.0
29 07:10 NW 6 16.09 Fair CLR 9 5 76% 76.33 0.0
29 06:50 Calm 16.09 Fair CLR 7 4 81% 76.3 0.0
29 06:35 Calm 16.09 Fair CLR 7 4 81% 76.28 0.0
29 06:15 Calm 16.09 Fair CLR 7 4 81% 76.25 0.0
29 05:50 E 6 16.09 Fair CLR 8 5 82% 76.25 0.0
29 05:35 E 7 16.09 Fair CLR 9 5 76% 8 76.23 0.0
29 05:10 SW 9 16.09 Fair CLR 12 6 67% 76.25 0.0
29 04:50 SW 13 16.09 Fair CLR 12 6 67% 76.25 0.0
29 04:35 SW 13 16.09 Fair CLR 12 6 67% 76.25 0.0
29 04:10 SW 11 16.09 Fair CLR 10 6 76% 9 76.25 0.0
29 03:50 Calm 16.09 Fair CLR 9 5 76% 76.25 0.0
29 03:30 Calm 16.09 Fair CLR 10 6 76% 76.25 0.0
29 03:10 Calm 16.09 Fair CLR 10 6 76% 76.25 0.0
29 02:50 Calm 16.09 Fair CLR 12 6 67% 76.23 0.0
29 02:30 Calm 0.00 Fair CLR 11 6 72% 76.23 0.0
29 02:10 E 6 16.09 Fair CLR 12 6 67% 76.23 0.0
29 01:50 Vrbl 6 16.09 Fair CLR 12 6 67% 76.23 0.0
29 01:35 SE 9 16.09 Fair CLR 12 6 67% 76.23 0.0
29 01:10 E 11 16.09 Fair CLR 12 6 67% 76.25 0.0
29 00:50 E 11 16.09 Fair CLR 11 6 72% 76.25 0.0
29 00:30 SE 6 16.09 Fair CLR 12 6 67% 76.25 0.0
29 00:10 SE 9 16.09 Fair CLR 12 6 67% 76.25 0.0
28 23:55 SE 9 16.09 Fair CLR 13 6 63% 76.25 0.0
28 23:35 Calm 16.09 Fair CLR 13 6 63% 76.25 0.0
28 23:10 E 7 16.09 Fair CLR 13 6 63% 76.25 0.0
28 22:55 Calm 16.09 Fair CLR 14 6 59% 76.23 0.0
28 22:35 SE 6 16.09 Fair CLR 14 6 59% 76.23 0.0
28 22:10 NW 7 16.09 Fair CLR 15 6 55% 76.23 0.0
28 21:55 N 6 16.09 Fair CLR 16 6 52% 76.2 0.0
28 21:35 NW 11 16.09 Fair CLR 17 7 52% 76.2 0.0
28 21:10 NW 13 16.09 Fair CLR 18 6 46% 76.2 0.0
28 20:55 N 11 16.09 Fair CLR 18 6 46% 76.2 0.0
28 20:35 N 9 16.09 Fair CLR 19 5 40% 76.17 0.0
28 20:10 N 11 16.09 Fair CLR 20 5 38% 76.15 0.0
28 19:55 N 11 16.09 Fair CLR 21 5 35% 76.12 0.0
28 19:35 N 7 G 19 16.09 Fair CLR 23 4 29% 76.1 0.0
28 19:10 N 13 G 24 16.09 Fair CLR 24 4 27% 25 76.1 0.0
28 18:50 NW 17 16.09 A Few Clouds FEW090 24 3 25% 25 76.1 0.0
28 18:35 NW 19 G 30 16.09 A Few Clouds FEW090 24 3 25% 25 76.07 0.0
28 18:10 NW 20 16.09 A Few Clouds FEW095 24 2 24% 25 76.07 0.0
28 17:55 NW 20 G 37 16.09 Fair CLR 26 2 21% 26 76.07 0.0
28 17:35 NW 28 16.09 A Few Clouds FEW095 27 2 20% 26 76.05 0.0
28 17:10 N 26 G 35 16.09 Fair CLR 28 0 16% 27 76.05 0.0
28 16:50 N 24 16.09 Fair CLR 28 0 16% 27 76.07 0.0
28 16:35 N 22 G 31 16.09 Fair CLR 28 1 17% 27 76.07 0.0
28 16:10 N 15 G 28 16.09 Fair CLR 28 3 20% 27 76.07 0.0
28 15:50 N 20 16.09 Fair CLR 27 3 21% 26 76.07 0.0
28 15:35 N 19 G 30 16.09 Fair CLR 28 3 20% 27 76.07 0.0
28 15:10 N 15 G 35 16.09 Fair CLR 28 3 20% 27 76.1 0.0
28 14:50 N 17 16.09 Fair CLR 27 3 21% 26 76.1 0.0
28 14:30 N 9 G 26 16.09 Fair CLR 26 4 24% 26 76.12 0.0
28 14:10 N 13 16.09 Fair CLR 26 4 24% 26 76.15 0.0
28 13:50 N 15 16.09 Fair CLR 26 4 24% 26 76.15 0.0
28 13:30 N 17 16.09 Fair CLR 25 5 28% 25 76.17 0.0
28 13:10 N 17 16.09 Fair CLR 25 5 28% 25 76.2 0.0
28 12:50 N 15 12.87 Fair CLR 24 4 27% 25 76.2 0.0
28 12:35 N 13 16.09 Fair CLR 24 5 29% 25 76.2 0.0
28 12:15 Calm 16.09 Fair CLR 24 4 27% 25 76.23 0.0
28 11:50 Vrbl 9 16.09 Fair CLR 23 4 29% 76.25 0.0
28 11:10 Calm 16.09 Fair CLR 22 5 33% 76.3 0.0
28 10:50 E 6 16.09 Fair CLR 21 5 35% 76.3 0.0
28 10:35 Vrbl 6 16.09 Fair CLR 20 6 40% 76.33 0.0
28 10:15 Calm 16.09 Fair CLR 19 6 43% 76.33 0.0
28 09:50 Calm 16.09 Fair CLR 19 6 43% 76.35 0.0
28 09:30 Calm 16.09 Fair CLR 17 6 49% 76.35 0.0
28 09:10 Calm 14.48 Fair CLR 17 6 49% 76.35 0.0
28 08:50 Calm 16.09 Fair CLR 16 6 52% 76.38 0.0
28 08:35 Calm 16.09 Fair CLR 15 6 55% 76.38 0.0
28 08:15 Calm 16.09 Fair CLR 14 5 55% 76.38 0.0
28 07:50 Calm 16.09 Fair CLR 12 5 63% 76.38 0.0
28 07:35 Calm 16.09 Fair CLR 11 5 67% 76.38 0.0
28 07:15 S 7 16.09 Fair CLR 10 4 67% 9 76.38 0.0
28 06:50 SW 9 16.09 Fair CLR 9 4 71% 8 76.38 0.0
28 06:30 SW 7 16.09 Fair CLR 9 4 71% 8 76.38 0.0
28 06:15 SW 6 16.09 Fair CLR 9 4 71% 76.38 0.0
28 05:50 SW 6 16.09 Fair CLR 9 4 71% 76.35 0.0
28 05:35 Calm 16.09 Fair CLR 9 4 71% 76.35 0.0
28 05:15 S 9 16.09 Fair CLR 9 4 71% 8 76.38 0.0
28 04:50 SW 7 16.09 A Few Clouds FEW003 9 4 71% 8 76.38 0.0
28 04:35 SW 6 16.09 Fair CLR 9 4 71% 76.35 0.0
Date Time (pdt) Wind (kph) Vis. (km) Weather Sky Cond. Air Dwpt Max. Min. Relative Humidity Wind Chill (°C) Heat Index (°C) altimeter (cm) sea level (mb) 1 hr 3 hr 6 hr
6 hour
Temperature (ºC) Pressure Precipitation (cm)